Time;durP1;ratioP1;P1;durP2;ratioP2;P2;SDS_P1;SDS_P2;PMS_P1;PMS_P2;Temp;Humidity;BMP_temperature;BMP_pressure;BME280_temperature;BME280_humidity;BME280_pressure;Samples;Min_cycle;Max_cycle;Signal;HPM_P1;HPM_P2
2022/11/13 00:01:24;;;;;;;22.53;16.17;;;;;;;18.09;45.76;102788.00;5053441;28;20485;-69
2022/11/13 00:03:50;;;;;;;26.93;16.40;;;;;;;18.30;44.52;102791.31;5051176;28;20064;-69
2022/11/13 00:06:17;;;;;;;21.77;15.07;;;;;;;18.10;45.08;102784.44;5083733;28;20478;-69
2022/11/13 00:08:42;;;;;;;27.40;16.37;;;;;;;18.15;44.22;102787.06;5051550;28;20452;-69
2022/11/13 00:11:19;;;;;;;19.83;13.63;;;;;;;18.02;44.80;102781.00;5050099;28;20029;-69
2022/11/13 00:13:45;;;;;;;26.03;15.83;;;;;;;18.03;45.50;102777.47;5053198;28;20017;-69
2022/11/13 00:16:16;;;;;;;23.73;14.83;;;;;;;18.31;44.69;102779.81;5051855;28;20029;-69
2022/11/13 00:18:42;;;;;;;19.43;14.27;;;;;;;17.92;45.55;102779.38;5050282;28;20086;-69
2022/11/13 00:21:15;;;;;;;23.30;14.60;;;;;;;18.53;43.97;102767.19;5050479;28;20033;-69
2022/11/13 00:23:40;;;;;;;24.27;15.77;;;;;;;18.01;44.82;102765.16;5051554;28;20024;-69
2022/11/13 00:26:10;;;;;;;21.30;14.97;;;;;;;18.53;43.94;102763.66;5084403;28;20029;-69
2022/11/13 00:28:36;;;;;;;24.73;14.87;;;;;;;17.96;45.05;102759.91;5050795;28;20028;-68
2022/11/13 00:31:02;;;;;;;25.00;15.33;;;;;;;18.00;45.07;102750.16;5050230;28;20025;-69
2022/11/13 00:33:28;;;;;;;20.63;14.23;;;;;;;17.85;45.58;102756.50;5049942;28;20032;-69
2022/11/13 00:35:53;;;;;;;19.00;13.47;;;;;;;17.55;46.17;102747.94;5050801;28;20032;-69
2022/11/13 00:38:19;;;;;;;20.50;13.97;;;;;;;17.90;45.12;102744.06;5082827;28;20383;-69
2022/11/13 00:40:44;;;;;;;21.57;14.13;;;;;;;18.23;44.95;102742.88;5051490;28;20108;-69
2022/11/13 00:43:09;;;;;;;23.10;14.67;;;;;;;18.36;44.61;102737.41;5052493;28;20052;-69
2022/11/13 00:45:35;;;;;;;21.27;14.00;;;;;;;18.06;44.96;102737.75;5050779;28;20040;-69
2022/11/13 00:48:00;;;;;;;20.47;13.73;;;;;;;18.52;44.31;102733.69;5051120;28;20029;-69
2022/11/13 00:50:26;;;;;;;20.70;13.83;;;;;;;18.03;45.22;102732.50;5052468;28;20025;-69
2022/11/13 00:52:52;;;;;;;18.37;12.73;;;;;;;18.03;45.44;102735.16;5049583;28;20021;-69
2022/11/13 00:55:17;;;;;;;22.10;13.63;;;;;;;18.24;44.87;102731.34;5050405;28;20036;-69
2022/11/13 00:57:43;;;;;;;21.17;13.37;;;;;;;18.37;44.74;102724.16;5050917;28;20509;-69
2022/11/13 01:00:08;;;;;;;24.67;13.67;;;;;;;18.03;45.12;102723.69;5082040;28;20125;-68
2022/11/13 01:02:34;;;;;;;17.90;12.73;;;;;;;18.04;45.26;102721.03;5051956;28;20486;-69
2022/11/13 01:04:59;;;;;;;17.57;12.47;;;;;;;18.04;45.06;102715.75;5048381;28;20478;-69
2022/11/13 01:07:25;;;;;;;20.63;12.17;;;;;;;17.81;45.34;102708.88;5049852;28;20108;-69
2022/11/13 01:09:50;;;;;;;22.10;12.60;;;;;;;18.22;44.20;102704.06;5050734;28;20474;-69
2022/11/13 01:12:16;;;;;;;20.93;13.10;;;;;;;18.29;44.35;102699.56;5050797;28;20437;-69
2022/11/13 01:14:42;;;;;;;20.77;13.03;;;;;;;18.27;43.75;102698.69;5048605;28;20481;-69
2022/11/13 01:17:07;;;;;;;21.87;12.27;;;;;;;17.87;44.94;102707.06;5049374;28;20044;-69
2022/11/13 01:19:33;;;;;;;23.70;12.50;;;;;;;17.88;44.99;102706.19;5051929;28;20033;-69
2022/11/13 01:21:58;;;;;;;21.00;13.93;;;;;;;17.85;44.85;102708.88;5049434;28;20056;-69
2022/11/13 01:24:23;;;;;;;19.77;12.73;;;;;;;18.07;44.48;102710.41;5051017;28;20040;-69
2022/11/13 01:26:49;;;;;;;16.57;12.33;;;;;;;17.45;45.32;102708.38;5049907;28;20078;-69
2022/11/13 01:29:14;;;;;;;17.87;11.93;;;;;;;17.63;46.05;102703.81;5047865;28;20171;-69
2022/11/13 01:31:40;;;;;;;18.63;12.70;;;;;;;17.61;46.08;102705.56;5050315;28;20391;-69
2022/11/13 01:34:05;;;;;;;19.23;13.03;;;;;;;17.97;45.10;102690.25;5048837;28;20055;-69
2022/11/13 01:36:30;;;;;;;20.50;12.70;;;;;;;17.55;45.69;102685.34;5049254;28;20036;-69
2022/11/13 01:38:56;;;;;;;18.67;11.93;;;;;;;17.49;45.73;102684.53;5050147;28;20182;-70
2022/11/13 01:41:28;;;;;;;48.53;13.20;;;;;;;17.68;45.54;102685.22;5050445;28;20035;-69
2022/11/13 01:43:54;;;;;;;22.35;13.43;;;;;;;17.62;45.19;102691.47;5047497;28;20044;-69
2022/11/13 01:46:39;;;;;;;18.67;13.03;;;;;;;17.89;44.92;102689.44;5050566;28;20055;-68
2022/11/13 01:49:10;;;;;;;20.20;12.63;;;;;;;17.53;45.96;102688.91;5050682;28;20040;-68
2022/11/13 01:51:41;;;;;;;19.30;12.93;;;;;;;17.53;45.54;102680.97;5049239;28;20029;-68
2022/11/13 01:54:11;;;;;;;16.60;12.23;;;;;;;17.66;45.63;102672.03;5064257;28;20584;-69
2022/11/13 01:56:37;;;;;;;19.33;13.87;;;;;;;17.60;45.06;102672.09;5048157;28;20032;-69
2022/11/13 01:59:13;;;;;;;18.47;12.37;;;;;;;17.56;45.29;102686.25;5049138;28;20024;-69
2022/11/13 02:01:38;;;;;;;17.50;12.97;;;;;;;17.41;46.04;102677.56;5048583;28;20048;-68
2022/11/13 02:04:04;;;;;;;23.80;12.27;;;;;;;17.44;45.62;102677.53;5048301;28;20510;-69
2022/11/13 02:06:35;;;;;;;18.73;12.20;;;;;;;17.61;44.94;102684.41;5048680;28;20393;-69
2022/11/13 02:09:01;;;;;;;17.87;11.67;;;;;;;17.69;44.85;102681.69;5050899;28;20036;-69
2022/11/13 02:11:26;;;;;;;18.10;11.90;;;;;;;17.66;44.62;102679.97;5047795;28;20029;-68
2022/11/13 02:13:52;;;;;;;19.33;12.00;;;;;;;17.56;45.06;102681.81;5049097;28;20025;-69
2022/11/13 02:16:20;;;;;;;17.77;11.60;;;;;;;17.38;44.92;102680.25;5048648;28;20036;-69
2022/11/13 02:18:45;;;;;;;16.07;11.30;;;;;;;16.95;46.39;102677.94;5050168;28;20037;-69
2022/11/13 02:21:38;;;;;;;21.43;11.67;;;;;;;17.24;45.85;102674.19;5050337;28;20028;-69
2022/11/13 02:24:16;;;;;;;17.77;11.52;;;;;;;17.58;44.82;102669.44;5070824;28;20473;-68
2022/11/13 02:26:42;;;;;;;18.43;11.63;;;;;;;17.61;44.54;102663.25;5048653;28;20025;-69
2022/11/13 02:29:07;;;;;;;16.27;11.50;;;;;;;17.85;44.10;102663.91;5047311;28;20054;-69
2022/11/13 02:31:33;;;;;;;15.83;10.80;;;;;;;17.67;43.85;102657.94;5045439;28;20025;-68
2022/11/13 02:34:01;;;;;;;16.47;11.07;;;;;;;17.76;43.76;102657.84;5044030;28;20067;-69
2022/11/13 02:36:29;;;;;;;16.07;10.97;;;;;;;17.45;44.25;102652.84;5048654;28;20328;-69
2022/11/13 02:38:58;;;;;;;15.97;10.90;;;;;;;17.55;44.12;102647.47;5049400;28;20052;-68
2022/11/13 02:41:23;;;;;;;18.57;11.93;;;;;;;17.69;43.52;102656.13;5052831;28;20115;-68
2022/11/13 02:43:48;;;;;;;14.47;10.33;;;;;;;17.17;44.81;102656.66;5053230;28;20052;-69
2022/11/13 02:46:14;;;;;;;16.07;10.63;;;;;;;17.50;43.84;102654.56;5052584;28;20056;-68
2022/11/13 02:48:39;;;;;;;18.00;11.80;;;;;;;17.28;44.11;102658.31;5053035;28;20029;-68
2022/11/13 02:51:05;;;;;;;23.77;11.13;;;;;;;17.70;43.15;102652.59;5053280;28;20035;-68
2022/11/13 02:53:30;;;;;;;18.70;11.23;;;;;;;17.37;43.74;102653.84;5052435;28;20124;-68
2022/11/13 02:55:56;;;;;;;18.00;10.67;;;;;;;17.49;43.78;102642.25;5053252;28;20024;-68
2022/11/13 02:58:21;;;;;;;17.83;11.23;;;;;;;16.89;45.14;102643.66;5051612;28;20037;-68
2022/11/13 03:00:46;;;;;;;17.07;11.00;;;;;;;16.97;44.43;102647.13;5055459;28;20098;-69
2022/11/13 03:03:12;;;;;;;16.37;10.80;;;;;;;16.77;45.32;102642.84;5053450;28;20036;-68
2022/11/13 03:05:37;;;;;;;15.73;10.60;;;;;;;16.97;44.85;102633.91;5053666;28;20053;-68
2022/11/13 03:08:03;;;;;;;16.40;10.67;;;;;;;17.18;44.35;102637.28;5051798;28;20505;-69
2022/11/13 03:10:28;;;;;;;19.03;11.70;;;;;;;17.16;44.64;102636.38;5051326;28;20398;-68
2022/11/13 03:12:53;;;;;;;16.90;11.10;;;;;;;16.89;45.24;102636.63;5052130;28;20033;-68
2022/11/13 03:15:19;;;;;;;21.50;11.70;;;;;;;16.85;45.05;102631.34;5053608;28;20493;-69
2022/11/13 03:17:44;;;;;;;19.33;12.20;;;;;;;16.83;45.43;102635.75;5051774;28;20033;-68
2022/11/13 03:20:09;;;;;;;16.37;10.77;;;;;;;16.55;45.66;102620.09;5050615;28;20028;-68
2022/11/13 03:22:35;;;;;;;17.70;11.37;;;;;;;16.28;46.64;102622.06;5052670;28;20115;-69
2022/11/13 03:25:00;;;;;;;14.77;10.53;;;;;;;16.45;46.45;102630.72;5044335;28;20029;-69
2022/11/13 03:27:26;;;;;;;15.57;11.20;;;;;;;16.87;45.20;102616.34;5053389;28;20021;-69
2022/11/13 03:29:51;;;;;;;15.83;9.90;;;;;;;16.76;44.98;102614.69;5049880;28;20636;-68
2022/11/13 03:32:17;;;;;;;15.53;11.07;;;;;;;16.50;45.57;102622.78;5047780;28;20025;-68
2022/11/13 03:34:42;;;;;;;16.67;11.33;;;;;;;16.81;44.84;102621.69;5049861;28;20078;-68
2022/11/13 03:37:08;;;;;;;19.17;11.20;;;;;;;17.00;44.22;102622.47;5083905;28;20037;-68
2022/11/13 03:39:33;;;;;;;17.53;11.20;;;;;;;16.89;44.73;102625.19;5051090;28;20399;-68
2022/11/13 03:41:58;;;;;;;16.83;10.93;;;;;;;16.96;44.36;102621.59;5051000;28;20467;-68
2022/11/13 03:44:24;;;;;;;15.93;10.27;;;;;;;16.95;44.93;102631.28;5053829;28;20432;-68
2022/11/13 03:46:49;;;;;;;19.97;10.77;;;;;;;16.76;45.20;102627.88;5051740;28;20051;-68
2022/11/13 03:49:14;;;;;;;17.43;10.77;;;;;;;16.92;44.71;102627.78;5082722;28;20033;-68
2022/11/13 03:51:40;;;;;;;14.07;9.53;;;;;;;16.73;44.98;102625.28;5083933;28;20028;-68
2022/11/13 03:54:05;;;;;;;16.97;10.30;;;;;;;17.03;43.83;102623.28;5050901;28;20032;-68
2022/11/13 03:56:30;;;;;;;15.47;9.70;;;;;;;16.61;44.58;102626.22;5051790;28;20485;-70
2022/11/13 03:58:56;;;;;;;16.07;11.30;;;;;;;16.58;45.09;102625.34;5052393;28;20032;-68
2022/11/13 04:01:21;;;;;;;15.70;10.50;;;;;;;16.49;45.08;102625.44;5051338;28;20044;-68
2022/11/13 04:03:47;;;;;;;15.60;9.90;;;;;;;16.72;44.54;102623.50;5084804;28;20020;-68
2022/11/13 04:06:13;;;;;;;15.87;10.37;;;;;;;16.71;44.38;102616.47;5051213;28;20114;-67
2022/11/13 04:08:39;;;;;;;18.93;10.80;;;;;;;16.71;44.26;102616.47;5051242;28;20021;-68
2022/11/13 04:11:06;;;;;;;18.77;10.77;;;;;;;16.66;44.30;102606.84;5049824;28;20552;-68
2022/11/13 04:13:32;;;;;;;15.27;9.80;;;;;;;16.78;44.35;102606.75;5051923;28;20025;-68
2022/11/13 04:15:57;;;;;;;14.40;9.90;;;;;;;16.11;45.94;102604.53;5051696;28;20033;-68
2022/11/13 04:18:22;;;;;;;18.10;10.23;;;;;;;16.44;45.26;102601.69;5049968;28;20024;-68
2022/11/13 04:20:48;;;;;;;20.63;10.53;;;;;;;16.90;44.22;102590.84;5050264;28;20040;-68
2022/11/13 04:23:14;;;;;;;16.43;9.83;;;;;;;16.86;44.11;102593.50;5050896;28;20032;-68
2022/11/13 04:25:40;;;;;;;17.50;11.70;;;;;;;16.53;44.49;102600.78;5052368;28;20099;-68
2022/11/13 04:28:05;;;;;;;15.53;10.17;;;;;;;16.60;44.47;102600.72;5084605;28;20167;-68
2022/11/13 04:30:30;;;;;;;15.80;10.80;;;;;;;16.22;45.34;102600.97;5050840;28;20102;-68
2022/11/13 04:32:56;;;;;;;18.17;11.00;;;;;;;16.01;46.07;102589.63;5050920;28;20031;-68
2022/11/13 04:35:21;;;;;;;16.67;10.90;;;;;;;16.07;45.26;102592.25;5050889;28;20497;-67
2022/11/13 04:37:46;;;;;;;15.43;10.87;;;;;;;16.15;45.80;102589.56;5050052;28;20363;-68
2022/11/13 04:40:12;;;;;;;14.57;9.67;;;;;;;16.35;45.37;102589.47;5049633;28;20465;-68
2022/11/13 04:42:49;;;;;;;14.73;9.77;;;;;;;16.42;45.01;102585.88;5052763;28;20029;-68
2022/11/13 04:45:21;;;;;;;18.03;10.20;;;;;;;16.25;45.45;102587.75;5050663;28;20403;-70
2022/11/13 04:47:46;;;;;;;15.47;9.90;;;;;;;16.19;45.43;102582.50;5051267;28;20016;-68
2022/11/13 04:50:14;;;;;;;15.77;10.03;;;;;;;16.13;45.78;102579.91;5051124;28;20109;-67
2022/11/13 04:52:39;;;;;;;16.03;10.47;;;;;;;16.25;45.39;102587.75;5051883;28;20036;-68
2022/11/13 04:55:05;;;;;;;13.80;9.83;;;;;;;16.48;44.90;102592.00;5049942;28;20029;-68
2022/11/13 04:57:31;;;;;;;16.27;10.70;;;;;;;15.93;46.33;102588.78;5051222;28;20021;-69
2022/11/13 04:59:56;;;;;;;18.53;10.80;;;;;;;16.43;44.63;102595.56;5048927;28;20048;-69
2022/11/13 05:02:21;;;;;;;13.60;9.83;;;;;;;16.39;45.01;102588.53;5050293;28;20021;-68
2022/11/13 05:04:47;;;;;;;18.20;10.97;;;;;;;16.07;45.39;102586.97;5049167;28;20398;-69
2022/11/13 05:07:12;;;;;;;17.63;10.13;;;;;;;16.49;44.11;102583.22;5049875;28;20509;-69
2022/11/13 05:09:37;;;;;;;16.37;9.57;;;;;;;16.19;44.76;102579.88;5049367;28;20059;-69
2022/11/13 05:12:06;;;;;;;16.53;9.50;;;;;;;16.19;44.38;102577.25;5052220;28;20466;-69
2022/11/13 05:14:36;;;;;;;13.00;9.60;;;;;;;16.29;44.44;102576.28;5081557;28;20074;-69
2022/11/13 05:17:02;;;;;;;16.90;9.90;;;;;;;16.44;43.96;102570.94;5049907;28;20094;-69
2022/11/13 05:19:27;;;;;;;13.53;9.57;;;;;;;16.42;43.89;102572.69;5049404;28;20029;-69
2022/11/13 05:21:53;;;;;;;15.47;10.73;;;;;;;16.05;44.73;102572.03;5049991;28;20025;-69
2022/11/13 05:24:18;;;;;;;17.10;9.97;;;;;;;15.85;45.11;102569.50;5050257;28;20020;-69
2022/11/13 05:26:43;;;;;;;15.27;9.20;;;;;;;15.86;45.28;102568.63;5049361;28;20068;-69
2022/11/13 05:29:09;;;;;;;17.37;9.97;;;;;;;15.80;46.08;102566.00;5048678;28;20029;-69
2022/11/13 05:31:34;;;;;;;12.07;9.23;;;;;;;15.93;45.45;102563.28;5050531;28;20029;-69
2022/11/13 05:34:03;;;;;;;13.83;9.67;;;;;;;16.19;44.25;102564.06;5048724;28;20031;-69
2022/11/13 05:36:28;;;;;;;15.27;9.33;;;;;;;15.69;45.85;102561.63;5049261;28;20029;-69
2022/11/13 05:38:53;;;;;;;15.60;9.97;;;;;;;15.70;45.62;102554.59;5049528;28;20111;-69
2022/11/13 05:41:21;;;;;;;13.70;9.70;;;;;;;15.84;44.82;102557.19;5049866;28;20110;-69
2022/11/13 05:43:47;;;;;;;13.87;8.77;;;;;;;16.07;44.07;102555.34;5083797;28;20024;-69
2022/11/13 05:46:21;;;;;;;16.27;10.30;;;;;;;15.69;45.04;102548.44;5049199;28;20490;-69
2022/11/13 05:48:50;;;;;;;13.37;8.73;;;;;;;15.67;45.04;102539.66;5047408;28;20027;-69
2022/11/13 05:51:20;;;;;;;14.83;9.40;;;;;;;15.59;45.45;102537.06;5049419;28;20024;-69
2022/11/13 05:53:45;;;;;;;14.70;9.33;;;;;;;15.71;45.25;102525.56;5049433;28;20110;-69
2022/11/13 05:56:20;;;;;;;13.97;9.43;;;;;;;15.78;45.08;102527.31;5049396;28;20056;-69
2022/11/13 05:58:46;;;;;;;12.53;9.10;;;;;;;15.97;44.50;102521.97;5029793;28;20029;-69
2022/11/13 06:01:17;;;;;;;14.80;9.60;;;;;;;15.71;45.52;102529.97;5042446;28;20576;-69
2022/11/13 06:03:43;;;;;;;12.60;9.13;;;;;;;16.07;44.08;102518.41;5048081;28;20024;-69
2022/11/13 06:06:10;;;;;;;11.90;9.00;;;;;;;15.92;44.48;102523.75;5050255;28;20033;-69
2022/11/13 06:08:36;;;;;;;14.60;9.23;;;;;;;15.75;44.85;102526.44;5050414;28;20036;-69
2022/11/13 06:11:05;;;;;;;12.83;9.20;;;;;;;16.07;44.44;102528.97;5050062;28;20474;-69
2022/11/13 06:13:31;;;;;;;14.87;9.37;;;;;;;16.04;44.46;102523.69;5050355;28;20363;-69
2022/11/13 06:16:06;;;;;;;15.50;9.17;;;;;;;15.96;44.87;102514.94;5048945;28;20028;-69
2022/11/13 06:18:32;;;;;;;13.80;9.90;;;;;;;15.85;45.01;102515.00;5049571;28;20032;-69
2022/11/13 06:21:25;;;;;;;12.80;9.43;;;;;;;15.69;45.03;102500.09;5051131;28;20025;-69
2022/11/13 06:23:50;;;;;;;;;;;;;;;15.78;45.40;102506.22;5049854;28;20028;-68
2022/11/13 06:26:22;;;;;;;14.47;9.73;;;;;;;15.55;45.39;102500.16;5048988;28;20326;-68
2022/11/13 06:28:47;;;;;;;14.80;9.33;;;;;;;15.60;45.34;102496.63;5050224;28;20025;-69
2022/11/13 06:31:22;;;;;;;14.37;9.30;;;;;;;15.63;45.56;102495.75;5050677;28;20450;-69
2022/11/13 06:33:48;;;;;;;14.77;9.83;;;;;;;15.80;45.58;102497.44;5050478;28;20029;-69
2022/11/13 06:36:19;;;;;;;14.03;9.27;;;;;;;15.94;44.88;102491.22;5049733;28;20029;-69
2022/11/13 06:38:46;;;;;;;13.07;9.33;;;;;;;15.74;45.39;102493.94;5049400;28;20394;-69
2022/11/13 06:41:13;;;;;;;15.53;10.20;;;;;;;16.06;44.62;102500.81;5049627;28;20505;-69
2022/11/13 06:43:39;;;;;;;16.33;9.63;;;;;;;15.90;44.55;102509.72;5051863;28;20772;-69
2022/11/13 06:46:07;;;;;;;15.67;9.90;;;;;;;15.74;45.00;102504.50;5051459;28;20024;-69
2022/11/13 06:48:33;;;;;;;13.33;9.57;;;;;;;15.90;44.56;102499.16;5049178;28;20021;-69
2022/11/13 06:51:04;;;;;;;13.37;8.90;;;;;;;16.03;43.81;102506.13;5057034;28;20024;-69
2022/11/13 06:53:30;;;;;;;14.43;9.17;;;;;;;15.85;44.02;102507.06;5049987;28;20470;-69
2022/11/13 06:55:56;;;;;;;15.13;9.47;;;;;;;15.98;43.90;102502.63;5049358;28;20085;-69
2022/11/13 06:58:21;;;;;;;13.63;9.30;;;;;;;15.72;44.37;102494.84;5046118;28;20490;-69
2022/11/13 07:00:47;;;;;;;13.20;9.47;;;;;;;15.75;44.21;102490.41;5052112;28;20053;-69
2022/11/13 07:03:21;;;;;;;13.67;9.80;;;;;;;15.34;45.39;102487.97;5053786;28;20033;-69
2022/11/13 07:05:47;;;;;;;16.13;10.43;;;;;;;15.34;45.51;102494.09;5055661;28;20031;-69
2022/11/13 07:08:14;;;;;;;16.80;10.40;;;;;;;15.53;44.67;102488.78;5048330;28;20024;-69
2022/11/13 07:10:40;;;;;;;15.23;9.80;;;;;;;15.58;44.34;102487.00;5049030;28;20436;-68
2022/11/13 07:13:06;;;;;;;16.50;10.77;;;;;;;15.63;44.41;102494.88;5048315;28;20036;-69
2022/11/13 07:15:36;;;;;;;15.50;10.67;;;;;;;15.57;44.95;102490.50;5047826;28;20108;-68
2022/11/13 07:18:03;;;;;;;17.40;10.97;;;;;;;15.60;44.77;102485.22;5051882;28;20115;-69
2022/11/13 07:20:29;;;;;;;14.70;10.90;;;;;;;15.62;45.14;102486.09;5045712;28;20044;-69
2022/11/13 07:22:56;;;;;;;17.53;11.10;;;;;;;15.65;45.07;102483.44;5050441;28;20025;-69
2022/11/13 07:25:21;;;;;;;15.63;11.80;;;;;;;15.70;45.05;102481.66;5051528;28;20017;-69
2022/11/13 07:27:47;;;;;;;17.43;12.40;;;;;;;15.65;45.25;102483.44;5050196;28;20028;-68
2022/11/13 07:30:12;;;;;;;18.53;14.17;;;;;;;15.82;44.92;102478.09;5052034;28;20116;-69
2022/11/13 07:32:37;;;;;;;20.07;16.53;;;;;;;15.57;45.55;102469.44;5054654;28;20091;-69
2022/11/13 07:35:03;;;;;;;18.80;13.83;;;;;;;15.92;44.74;102481.56;5054833;28;20033;-69
2022/11/13 07:37:29;;;;;;;17.73;14.03;;;;;;;16.03;44.65;102477.09;5047101;28;20026;-69
2022/11/13 07:39:54;;;;;;;19.20;13.10;;;;;;;15.91;44.71;102482.47;5051594;28;20029;-69
2022/11/13 07:42:19;;;;;;;13.47;10.60;;;;;;;16.11;44.66;102483.22;5050841;28;20021;-68
2022/11/13 07:44:44;;;;;;;18.23;12.87;;;;;;;15.99;44.96;102472.75;5053133;28;20103;-68
2022/11/13 07:47:10;;;;;;;17.57;12.97;;;;;;;16.03;44.85;102474.47;5055656;28;20152;-69
2022/11/13 07:49:35;;;;;;;22.47;13.10;;;;;;;15.89;45.02;102477.16;5053274;28;20029;-68
2022/11/13 07:52:01;;;;;;;16.57;12.73;;;;;;;16.23;44.59;102470.81;5084857;28;20024;-69
2022/11/13 07:54:26;;;;;;;16.20;10.63;;;;;;;15.60;45.13;102469.41;5053076;28;20028;-69
2022/11/13 07:56:52;;;;;;;17.23;11.97;;;;;;;16.02;45.19;102475.34;5053458;28;20032;-69
2022/11/13 07:59:17;;;;;;;15.47;9.93;;;;;;;16.05;44.41;102471.81;5048361;28;20064;-69
2022/11/13 08:01:42;;;;;;;16.80;10.17;;;;;;;16.32;44.29;102476.03;5050324;28;20482;-69
2022/11/13 08:04:08;;;;;;;12.40;9.33;;;;;;;16.25;44.23;102482.22;5052848;28;20090;-69
2022/11/13 08:06:36;;;;;;;16.33;10.10;;;;;;;16.10;44.28;102484.09;5051277;28;20490;-69
2022/11/13 08:09:01;;;;;;;16.10;9.87;;;;;;;16.22;44.21;102484.88;5051649;28;20612;-69
2022/11/13 08:11:26;;;;;;;16.83;9.10;;;;;;;16.44;43.69;102480.31;5049557;28;20111;-69
2022/11/13 08:13:52;;;;;;;15.00;9.10;;;;;;;16.54;43.47;102481.09;5050936;28;20505;-69
2022/11/13 08:16:17;;;;;;;12.97;8.93;;;;;;;16.69;43.76;102486.25;5049681;28;20032;-69
2022/11/13 08:18:43;;;;;;;25.10;12.13;;;;;;;16.60;43.96;102486.34;5047452;28;20115;-69
2022/11/13 08:21:08;;;;;;;14.53;8.97;;;;;;;16.77;43.16;102481.78;5054706;28;20383;-69
2022/11/13 08:23:33;;;;;;;15.80;9.83;;;;;;;16.42;44.51;102482.97;5048011;28;20136;-69
2022/11/13 08:26:03;;;;;;;17.57;10.13;;;;;;;16.85;43.07;102476.41;5051087;28;20020;-69
2022/11/13 08:28:29;;;;;;;16.40;10.20;;;;;;;16.49;43.88;102488.19;5050213;28;20082;-69
2022/11/13 08:30:54;;;;;;;15.73;9.50;;;;;;;16.70;43.59;102477.44;5049967;28;20425;-69
2022/11/13 08:33:19;;;;;;;15.83;9.77;;;;;;;16.15;45.12;102477.91;5050446;28;20024;-69
2022/11/13 08:35:56;;;;;;;16.33;9.70;;;;;;;16.91;43.65;102475.50;5050089;28;20017;-69
2022/11/13 08:38:21;;;;;;;13.93;9.50;;;;;;;16.78;43.52;102470.31;5051912;28;20119;-68
2022/11/13 08:40:47;;;;;;;16.20;10.47;;;;;;;16.87;43.75;102463.19;5049890;28;20535;-69
2022/11/13 08:43:12;;;;;;;19.00;11.47;;;;;;;16.43;44.39;102474.16;5050698;28;20068;-69
2022/11/13 08:45:38;;;;;;;18.10;10.43;;;;;;;17.20;42.78;102471.66;5051706;28;20068;-69
2022/11/13 08:48:04;;;;;;;15.20;10.20;;;;;;;16.54;44.49;102475.81;5051326;28;20033;-69
2022/11/13 08:50:31;;;;;;;15.30;9.40;;;;;;;17.03;43.82;102474.50;5083388;28;20024;-69
2022/11/13 08:52:58;;;;;;;14.90;9.67;;;;;;;17.43;43.11;102459.06;5050738;28;20025;-69
2022/11/13 08:55:24;;;;;;;14.97;9.77;;;;;;;17.28;43.39;102453.94;5050877;28;20017;-69
2022/11/13 08:57:50;;;;;;;13.27;9.03;;;;;;;16.94;43.66;102454.34;5083730;28;20025;-70
2022/11/13 09:00:16;;;;;;;13.00;9.03;;;;;;;17.27;42.45;102447.78;5050614;28;20045;-69
2022/11/13 09:02:41;;;;;;;13.83;8.63;;;;;;;17.37;43.19;102437.97;5049456;28;20029;-69
2022/11/13 09:05:07;;;;;;;14.53;9.70;;;;;;;17.62;42.82;102448.22;5049142;28;20458;-69
2022/11/13 09:07:32;;;;;;;14.70;9.27;;;;;;;17.70;42.60;102448.13;5050839;28;20040;-69
2022/11/13 09:09:57;;;;;;;15.97;9.20;;;;;;;17.89;42.12;102446.09;5051935;28;20148;-69
2022/11/13 09:12:24;;;;;;;13.07;9.00;;;;;;;16.73;44.06;102445.75;5065606;28;20586;-69
2022/11/13 09:14:49;;;;;;;14.30;9.03;;;;;;;17.33;43.53;102441.56;5070333;28;20115;-69
2022/11/13 09:17:15;;;;;;;13.67;8.50;;;;;;;17.71;42.76;102441.91;5070512;28;20025;-69
2022/11/13 09:19:41;;;;;;;12.73;8.63;;;;;;;17.98;42.20;102435.38;5050728;28;20028;-69
2022/11/13 09:22:06;;;;;;;14.13;8.63;;;;;;;18.25;41.56;102441.13;5050926;28;20037;-69
2022/11/13 09:24:32;;;;;;;14.03;9.20;;;;;;;18.23;41.90;102446.44;5052196;28;20028;-69
2022/11/13 09:26:57;;;;;;;14.17;9.30;;;;;;;18.48;41.79;102438.94;5049314;28;20521;-69
2022/11/13 09:29:24;;;;;;;14.33;8.17;;;;;;;18.62;41.39;102433.41;5049349;28;20560;-69
2022/11/13 09:31:50;;;;;;;11.70;8.67;;;;;;;18.16;42.29;102428.03;5082506;28;20033;-69
2022/11/13 09:34:15;;;;;;;16.50;9.00;;;;;;;18.09;43.65;102421.97;5049057;28;20163;-69
2022/11/13 09:36:40;;;;;;;13.57;9.03;;;;;;;18.86;41.66;102420.59;5051201;28;20100;-69
2022/11/13 09:39:06;;;;;;;12.10;8.97;;;;;;;18.65;41.74;102422.75;5049255;28;20082;-69
2022/11/13 09:41:58;;;;;;;13.33;8.97;;;;;;;18.92;41.36;102425.81;5048467;28;20040;-69
2022/11/13 09:44:40;;;;;;;14.00;8.43;;;;;;;20.49;39.39;102412.50;5046911;28;20048;-69
2022/11/13 09:47:12;;;;;;;14.50;8.80;;;;;;;20.37;38.21;102412.81;5048839;28;20439;-69
2022/11/13 09:49:44;;;;;;;14.73;8.33;;;;;;;22.08;37.70;102412.22;5048668;28;20036;-69
2022/11/13 09:52:31;;;;;;;9.63;7.20;;;;;;;22.45;36.73;102405.66;5049765;28;20082;-69
2022/11/13 09:54:57;;;;;;;13.83;7.40;;;;;;;22.99;35.81;102395.72;5049154;28;20047;-70
2022/11/13 09:57:34;;;;;;;10.48;6.75;;;;;;;21.24;36.17;102403.31;5048425;28;20029;-69
2022/11/13 10:00:10;;;;;;;9.52;6.93;;;;;;;21.82;35.52;102406.00;5048993;28;20384;-69
2022/11/13 10:03:23;;;;;;;14.82;7.60;;;;;;;21.17;36.44;102406.19;5048573;28;20044;-69
2022/11/13 10:06:26;;;;;;;9.18;6.95;;;;;;;21.32;37.24;102411.94;5048353;28;20064;-69
2022/11/13 10:08:59;;;;;;;12.80;7.55;;;;;;;21.95;36.00;102406.44;5049359;28;20025;-69
2022/11/13 10:11:43;;;;;;;10.35;7.43;;;;;;;21.44;36.46;102411.56;5050204;28;20571;-69
2022/11/13 10:14:17;;;;;;;9.63;7.10;;;;;;;21.42;36.45;102408.09;5050769;28;20040;-69
2022/11/13 10:17:13;;;;;;;13.40;7.88;;;;;;;20.63;37.12;102407.66;5048532;28;20029;-69
2022/11/13 10:19:59;;;;;;;10.23;6.78;;;;;;;21.09;36.71;102404.63;5050696;28;20498;-69
2022/11/13 10:22:35;;;;;;;10.82;7.00;;;;;;;21.85;36.04;102396.09;5049962;28;20082;-69
2022/11/13 10:25:18;;;;;;;10.23;7.60;;;;;;;21.35;36.00;102402.09;5049119;28;20099;-69
2022/11/13 10:27:52;;;;;;;12.77;7.75;;;;;;;21.89;35.64;102391.56;5048314;28;20047;-69
2022/11/13 10:30:18;;;;;;;12.63;7.60;;;;;;;21.05;36.72;102387.03;5048436;28;20119;-69
2022/11/13 10:32:45;;;;;;;12.88;8.18;;;;;;;22.61;35.30;102384.69;5049029;28;20145;-69
2022/11/13 10:35:29;;;;;;;10.70;7.90;;;;;;;23.19;34.02;102385.19;5048940;28;20036;-69
2022/11/13 10:38:02;;;;;;;11.15;7.47;;;;;;;22.81;33.64;102376.81;5064047;28;20037;-69
2022/11/13 10:40:31;;;;;;;10.50;7.97;;;;;;;22.33;34.25;102380.31;5048318;28;20033;-70
2022/11/13 10:43:12;;;;;;;11.02;7.53;;;;;;;22.01;34.92;102385.81;5049089;28;20029;-69
2022/11/13 10:45:38;;;;;;;14.32;7.47;;;;;;;22.45;32.74;102371.91;5047434;28;20036;-69
2022/11/13 10:48:04;;;;;;;10.90;7.07;;;;;;;21.91;34.60;102375.53;5049133;28;20021;-69
2022/11/13 10:50:31;;;;;;;12.38;7.47;;;;;;;21.56;34.82;102372.25;5048789;28;20043;-69
2022/11/13 10:52:56;;;;;;;12.18;8.18;;;;;;;21.73;34.92;102369.88;5048976;28;20117;-69
2022/11/13 10:55:38;;;;;;;10.55;8.18;;;;;;;21.82;34.77;102366.94;5048251;28;20025;-69
2022/11/13 10:58:12;;;;;;;15.35;8.30;;;;;;;21.62;34.46;102366.72;5048261;28;20029;-69
2022/11/13 11:00:40;;;;;;;11.60;8.00;;;;;;;21.96;35.36;102365.59;5051323;28;20135;-69
2022/11/13 11:03:20;;;;;;;11.80;8.07;;;;;;;22.51;34.84;102357.50;5054509;28;20056;-69
2022/11/13 11:05:55;;;;;;;11.50;8.38;;;;;;;23.27;33.29;102358.19;5051304;28;20078;-69
2022/11/13 11:08:38;;;;;;;11.80;8.32;;;;;;;22.75;33.79;102350.41;5053103;28;20192;-69
2022/11/13 11:14:24;;;;;;;12.48;7.60;;;;;;;22.69;33.82;102339.97;5053892;28;20107;-69
2022/11/13 11:16:51;;;;;;;10.95;7.70;;;;;;;22.12;34.53;102350.84;5052518;28;20036;-69
2022/11/13 11:19:21;;;;;;;12.32;7.95;;;;;;;22.32;33.67;102330.63;5052067;28;20033;-69
2022/11/13 11:21:51;;;;;;;11.07;7.55;;;;;;;21.62;34.93;102337.44;5052777;28;20037;-69